Time;durP1;ratioP1;P1;durP2;ratioP2;P2;SDS_P1;SDS_P2;PMS_P1;PMS_P2;Temp;Humidity;BMP_temperature;BMP_pressure;BME280_temperature;BME280_humidity;BME280_pressure;Samples;Min_cycle;Max_cycle;Signal;HPM_P1;HPM_P2
2022/12/28 00:00:39;;;;;;;4.85;3.75;;;19.40;54.20;;;;;;6252764;28;20033;-75
2022/12/28 00:03:40;;;;;;;4.82;3.22;;;19.40;54.30;;;;;;6269251;28;20044;-75
2022/12/28 00:06:41;;;;;;;4.60;3.53;;;19.40;54.30;;;;;;6252115;28;20022;-75
2022/12/28 00:09:41;;;;;;;5.07;3.55;;;19.40;54.30;;;;;;6244631;28;20502;-75
2022/12/28 00:12:42;;;;;;;4.60;3.55;;;19.40;54.20;;;;;;6245827;28;20418;-75
2022/12/28 00:15:43;;;;;;;4.80;3.80;;;19.40;54.30;;;;;;6251032;28;20037;-75
2022/12/28 00:18:43;;;;;;;5.97;4.07;;;19.40;54.30;;;;;;6267938;28;20448;-75
2022/12/28 00:21:45;;;;;;;4.45;3.65;;;19.40;54.30;;;;;;6252397;28;20029;-75
2022/12/28 00:24:46;;;;;;;4.50;3.50;;;19.40;54.30;;;;;;6244043;28;20034;-75
2022/12/28 00:27:46;;;;;;;4.28;3.40;;;19.30;54.20;;;;;;6266197;28;20036;-75
2022/12/28 00:30:47;;;;;;;4.45;3.10;;;19.40;54.30;;;;;;6261380;28;20435;-75
2022/12/28 00:33:48;;;;;;;4.28;3.33;;;19.40;54.30;;;;;;6243277;28;20034;-75
2022/12/28 00:36:50;;;;;;;4.43;3.20;;;19.30;54.20;;;;;;6258077;28;20061;-75
2022/12/28 00:39:51;;;;;;;5.13;3.55;;;19.40;54.30;;;;;;6268635;28;20032;-75
2022/12/28 00:42:51;;;;;;;4.35;3.47;;;19.40;54.30;;;;;;6250563;28;20032;-75
2022/12/28 00:45:52;;;;;;;4.68;3.50;;;19.40;54.30;;;;;;6262474;28;20079;-75
2022/12/28 00:48:53;;;;;;;4.63;3.50;;;19.40;54.30;;;;;;6242611;28;20384;-75
2022/12/28 00:51:53;;;;;;;4.70;3.13;;;19.40;54.30;;;;;;6254613;28;20128;-75
2022/12/28 00:54:54;;;;;;;4.35;3.20;;;19.30;54.20;;;;;;6267075;28;20028;-74
2022/12/28 00:57:57;;;;;;;4.00;3.40;;;19.40;54.30;;;;;;6246618;28;20025;-75
2022/12/28 01:00:58;;;;;;;4.00;3.00;;;19.40;54.30;;;;;;6246031;28;20033;-75
2022/12/28 01:04:00;;;;;;;4.32;3.15;;;19.40;54.30;;;;;;6262356;28;20112;-75
2022/12/28 01:07:00;;;;;;;4.07;3.13;;;19.30;54.20;;;;;;6255805;28;20033;-75
2022/12/28 01:10:01;;;;;;;4.47;3.20;;;19.40;54.30;;;;;;6241576;28;20099;-75
2022/12/28 01:13:01;;;;;;;4.03;3.20;;;19.40;54.30;;;;;;6262938;28;20024;-75
2022/12/28 01:16:17;;;;;;;4.78;3.53;;;19.40;54.30;;;;;;6264696;28;20025;-75
2022/12/28 01:19:21;;;;;;;3.47;2.88;;;19.40;54.30;;;;;;6241838;28;20358;-75
2022/12/28 01:22:22;;;;;;;4.38;3.28;;;19.30;54.20;;;;;;6253184;28;20503;-74
2022/12/28 01:25:22;;;;;;;4.40;3.15;;;19.40;54.30;;;;;;6266355;28;20021;-74
2022/12/28 01:28:23;;;;;;;3.95;3.15;;;19.30;54.20;;;;;;6246775;28;20029;-75
2022/12/28 01:31:24;;;;;;;3.97;2.90;;;19.30;54.20;;;;;;6244317;28;20017;-75
2022/12/28 01:34:24;;;;;;;4.03;3.10;;;19.30;54.20;;;;;;6266705;28;20426;-75
2022/12/28 01:37:25;;;;;;;4.32;2.92;;;19.40;54.20;;;;;;6255897;28;20025;-75
2022/12/28 01:40:25;;;;;;;5.30;3.22;;;19.30;54.20;;;;;;6241696;28;20037;-75
2022/12/28 01:44:05;;;;;;;2.97;2.60;;;19.30;54.20;;;;;;6251719;28;20056;-75
2022/12/28 01:47:11;;;;;;;3.63;2.75;;;19.30;54.20;;;;;;6226415;28;20388;-75
2022/12/28 01:50:15;;;;;;;4.80;3.25;;;19.30;54.20;;;;;;6261007;28;20111;-75
2022/12/28 01:53:17;;;;;;;4.20;3.10;;;19.30;54.20;;;;;;6250065;28;20032;-75
2022/12/28 01:56:18;;;;;;;3.60;2.78;;;19.30;54.20;;;;;;6242826;28;20029;-74
2022/12/28 01:59:23;;;;;;;4.43;3.10;;;19.30;54.20;;;;;;6265079;28;20128;-75
2022/12/28 02:02:24;;;;;;;3.83;2.70;;;19.30;54.20;;;;;;6261469;28;20379;-75
2022/12/28 02:05:30;;;;;;;5.45;2.80;;;19.30;54.10;;;;;;6242652;28;20057;-75
2022/12/28 02:08:49;;;;;;;3.35;2.72;;;19.30;54.20;;;;;;6256843;28;20029;-76
2022/12/28 02:11:50;;;;;;;4.07;2.97;;;19.30;54.20;;;;;;6252906;28;20069;-76
2022/12/28 02:14:51;;;;;;;3.90;2.60;;;19.30;54.20;;;;;;6266976;28;20043;-75
2022/12/28 02:17:52;;;;;;;3.95;2.70;;;19.30;54.20;;;;;;6258506;28;20404;-75
2022/12/28 02:21:16;;;;;;;3.78;2.75;;;19.30;54.30;;;;;;6243213;28;20037;-75
2022/12/28 02:24:42;;;;;;;3.92;2.78;;;19.30;54.30;;;;;;6263214;28;20383;-75
2022/12/28 02:28:09;;;;;;;4.43;2.58;;;19.30;54.10;;;;;;6253604;28;20079;-74
2022/12/28 02:31:39;;;;;;;3.40;2.55;;;19.30;54.10;;;;;;6272269;28;20321;-75
2022/12/28 02:35:04;;;;;;;3.85;2.72;;;19.30;54.20;;;;;;6250081;28;20053;-75
2022/12/28 02:38:23;;;;;;;3.05;2.42;;;19.30;54.20;;;;;;6255565;28;20021;-75
2022/12/28 02:41:25;;;;;;;3.85;2.65;;;19.30;54.20;;;;;;6272366;28;20037;-76
2022/12/28 02:51:22;;;;;;;2.70;2.20;;;19.30;54.10;;;;;;6246668;28;20523;-74
2022/12/28 02:58:27;;;;;;;3.28;2.35;;;19.30;54.20;;;;;;6266942;28;20021;-75
2022/12/28 03:01:49;;;;;;;2.95;2.08;;;19.30;54.10;;;;;;6217404;28;20129;-75
2022/12/28 03:05:15;;;;;;;2.75;2.08;;;19.30;54.10;;;;;;6265310;28;20079;-75
2022/12/28 03:08:18;;;;;;;;;;;19.30;54.10;;;;;;6267056;28;20025;-75
2022/12/28 03:11:26;;;;;;;3.05;2.38;;;19.30;54.20;;;;;;6244694;28;19909;-75
2022/12/28 03:14:40;;;;;;;3.47;2.53;;;19.30;54.10;;;;;;6259333;28;20442;-74
2022/12/28 03:31:28;;;;;;;2.30;1.80;;;19.30;54.20;;;;;;6193562;28;20050;-75
2022/12/28 03:34:28;;;;;;;2.30;1.88;;;19.30;54.20;;;;;;6188106;28;20022;-75
2022/12/28 03:37:32;;;;;;;2.78;2.03;;;19.30;54.20;;;;;;6201763;28;20030;-75
2022/12/28 03:40:48;;;;;;;3.72;2.40;;;19.30;54.10;;;;;;6249211;28;20080;-75
2022/12/28 03:43:54;;;;;;;2.55;2.03;;;19.30;54.20;;;;;;6246916;28;20041;-74
2022/12/28 03:47:00;;;;;;;2.55;2.10;;;19.30;54.10;;;;;;6243941;28;20025;-75
2022/12/28 03:50:02;;;;;;;2.30;1.88;;;19.30;54.10;;;;;;6254149;28;20049;-76
2022/12/28 03:53:03;;;;;;;2.60;2.08;;;19.30;54.10;;;;;;6269746;28;20043;-76
2022/12/28 03:56:08;;;;;;;2.45;1.90;;;19.30;54.10;;;;;;6246673;28;20052;-75
2022/12/28 03:59:09;;;;;;;3.03;2.20;;;19.30;54.10;;;;;;6249666;28;20040;-75
2022/12/28 04:02:10;;;;;;;2.80;1.95;;;19.30;54.10;;;;;;6269029;28;20025;-74
2022/12/28 04:05:10;;;;;;;3.15;2.00;;;19.30;54.10;;;;;;6254872;28;20353;-74
2022/12/28 04:08:11;;;;;;;2.25;1.85;;;19.30;54.10;;;;;;6243666;28;20353;-75
2022/12/28 04:11:12;;;;;;;2.50;1.90;;;19.30;54.10;;;;;;6254876;28;20100;-75
2022/12/28 04:14:13;;;;;;;2.15;1.80;;;19.30;54.10;;;;;;6248395;28;20036;-75
2022/12/28 04:17:13;;;;;;;2.80;2.15;;;19.30;54.10;;;;;;6269386;28;20017;-75
2022/12/28 04:20:14;;;;;;;2.40;1.98;;;19.30;54.10;;;;;;6256164;28;20057;-75
2022/12/28 04:23:14;;;;;;;2.38;1.75;;;19.30;54.10;;;;;;6243067;28;20057;-75
2022/12/28 04:26:16;;;;;;;2.80;1.92;;;19.30;54.10;;;;;;6261954;28;20020;-74
2022/12/28 04:29:17;;;;;;;2.80;2.00;;;19.30;54.10;;;;;;6266743;28;20036;-75
2022/12/28 04:32:18;;;;;;;2.60;1.80;;;19.30;54.10;;;;;;6243033;28;20021;-75
2022/12/28 04:35:18;;;;;;;2.25;1.63;;;19.30;54.10;;;;;;6253208;28;20064;-74
2022/12/28 04:38:20;;;;;;;2.30;1.80;;;19.30;54.10;;;;;;6267654;28;20041;-75
2022/12/28 04:41:20;;;;;;;2.38;1.92;;;19.30;54.10;;;;;;6249301;28;20037;-76
2022/12/28 04:44:21;;;;;;;2.03;1.80;;;19.30;54.10;;;;;;6257645;28;20025;-74
2022/12/28 04:47:21;;;;;;;2.28;1.67;;;19.30;54.10;;;;;;6242505;28;20037;-75
2022/12/28 04:50:23;;;;;;;2.00;1.42;;;19.30;54.10;;;;;;6250417;28;20063;-75
2022/12/28 04:53:23;;;;;;;3.00;1.77;;;19.30;54.10;;;;;;6268507;28;20017;-75
2022/12/28 04:56:25;;;;;;;2.63;1.98;;;19.30;54.00;;;;;;6250885;28;20530;-75
2022/12/28 05:03:23;;;;;;;2.60;2.00;;;19.30;54.00;;;;;;6219601;28;20057;-75
2022/12/28 05:06:26;;;;;;;1.88;1.67;;;19.30;54.10;;;;;;6248141;28;20553;-75
2022/12/28 05:09:26;;;;;;;2.13;1.35;;;19.30;54.10;;;;;;6267067;28;20029;-75
2022/12/28 05:12:27;;;;;;;2.25;1.80;;;19.30;54.10;;;;;;6235513;28;20132;-75
2022/12/28 05:15:27;;;;;;;2.20;1.65;;;19.30;54.10;;;;;;6229924;28;20067;-75
2022/12/28 05:18:28;;;;;;;2.17;1.50;;;19.30;54.10;;;;;;6266279;28;20040;-75
2022/12/28 05:21:29;;;;;;;2.97;1.88;;;19.30;54.10;;;;;;6254456;28;20025;-75
2022/12/28 05:24:30;;;;;;;3.28;1.83;;;19.30;54.10;;;;;;6241706;28;20025;-75
2022/12/28 05:27:30;;;;;;;1.73;1.50;;;19.30;54.10;;;;;;6262413;28;20035;-75
2022/12/28 05:30:31;;;;;;;2.72;1.60;;;19.30;54.10;;;;;;6261967;28;20052;-76
2022/12/28 05:33:33;;;;;;;2.47;1.52;;;19.30;54.00;;;;;;6253978;28;20041;-75
2022/12/28 05:36:36;;;;;;;2.45;1.73;;;19.30;54.10;;;;;;6254571;28;20021;-75
2022/12/28 05:39:37;;;;;;;3.08;1.70;;;19.30;54.10;;;;;;6267096;28;20033;-75
2022/12/28 05:42:37;;;;;;;1.90;1.60;;;19.30;54.10;;;;;;6248214;28;20029;-75
2022/12/28 05:45:38;;;;;;;1.63;1.40;;;19.30;54.00;;;;;;6264362;28;20077;-75
2022/12/28 05:48:40;;;;;;;2.30;1.70;;;19.30;54.00;;;;;;6241156;28;20095;-74
2022/12/28 05:51:41;;;;;;;2.65;1.92;;;19.30;54.00;;;;;;6253222;28;20036;-75
2022/12/28 05:54:41;;;;;;;2.55;1.70;;;19.30;54.00;;;;;;6266040;28;20102;-75
2022/12/28 05:57:42;;;;;;;2.00;1.63;;;19.30;54.00;;;;;;6253264;28;20083;-75
2022/12/28 06:00:43;;;;;;;1.70;1.30;;;19.30;54.00;;;;;;6246503;28;20037;-75
2022/12/28 06:03:44;;;;;;;2.38;1.70;;;19.30;54.00;;;;;;6223292;28;20049;-75
2022/12/28 06:06:46;;;;;;;2.10;1.55;;;19.30;53.90;;;;;;6228887;28;20447;-75
2022/12/28 06:09:47;;;;;;;1.88;1.35;;;19.30;54.00;;;;;;6248908;28;20377;-74
2022/12/28 06:12:47;;;;;;;1.88;1.60;;;19.30;53.90;;;;;;6248207;28;20108;-74
2022/12/28 06:15:48;;;;;;;1.70;1.35;;;19.30;54.00;;;;;;6219532;28;20064;-75
2022/12/28 06:18:53;;;;;;;3.05;1.42;;;19.30;54.00;;;;;;6244754;28;20366;-75
2022/12/28 06:21:53;;;;;;;2.92;1.30;;;19.30;54.10;;;;;;6247124;28;20068;-74
2022/12/28 06:24:54;;;;;;;1.75;1.45;;;19.30;54.10;;;;;;6234325;28;20415;-74
2022/12/28 06:27:54;;;;;;;2.45;1.45;;;19.30;54.10;;;;;;6261121;28;20321;-75
2022/12/28 06:31:06;;;;;;;1.73;1.42;;;19.30;54.20;;;;;;6270143;28;20071;-74
2022/12/28 06:34:08;;;;;;;2.55;1.60;;;19.30;54.20;;;;;;6229908;28;20036;-75
2022/12/28 06:37:09;;;;;;;2.58;1.33;;;19.30;54.10;;;;;;6254432;28;20082;-75
2022/12/28 06:40:10;;;;;;;2.38;1.20;;;19.30;54.20;;;;;;6269847;28;20026;-74
2022/12/28 06:43:10;;;;;;;2.00;1.30;;;19.40;54.20;;;;;;6268967;28;20021;-74
2022/12/28 06:46:13;;;;;;;7.70;1.65;;;19.40;54.10;;;;;;6207909;28;20036;-75
2022/12/28 06:49:13;;;;;;;2.60;1.33;;;19.40;54.10;;;;;;6269119;28;20575;-74
2022/12/28 06:52:14;;;;;;;2.42;1.45;;;19.40;54.10;;;;;;6266729;28;20021;-74
2022/12/28 06:55:14;;;;;;;6.40;1.67;;;19.40;54.10;;;;;;6253111;28;20030;-74
2022/12/28 06:58:15;;;;;;;7.07;1.60;;;19.50;54.10;;;;;;6252438;28;20040;-72
2022/12/28 07:01:28;;;;;;;1.55;1.20;;;19.50;54.20;;;;;;6240538;28;20065;-72
2022/12/28 07:04:29;;;;;;;6.07;1.50;;;19.40;54.20;;;;;;6259421;28;20065;-73
2022/12/28 07:07:29;;;;;;;1.60;1.35;;;19.50;54.30;;;;;;6252177;28;20029;-73
2022/12/28 07:10:31;;;;;;;2.30;1.30;;;19.50;54.30;;;;;;6242710;28;20022;-72
2022/12/28 07:13:32;;;;;;;2.13;1.63;;;19.50;54.20;;;;;;6252992;28;20040;-73
2022/12/28 07:16:33;;;;;;;2.28;1.52;;;19.40;54.30;;;;;;6271083;28;20051;-73
2022/12/28 07:19:34;;;;;;;5.30;1.40;;;19.40;54.20;;;;;;6248539;28;20033;-73
2022/12/28 07:22:35;;;;;;;2.80;1.67;;;19.40;54.20;;;;;;6264449;28;20048;-73
2022/12/28 07:25:35;;;;;;;1.85;1.30;;;19.40;54.20;;;;;;6272398;28;20082;-73
2022/12/28 07:28:37;;;;;;;2.50;1.40;;;19.40;54.20;;;;;;6257476;28;20076;-72
2022/12/28 07:31:39;;;;;;;1.58;1.30;;;19.40;54.20;;;;;;6246813;28;20030;-73
2022/12/28 07:34:40;;;;;;;1.85;1.55;;;19.40;54.20;;;;;;6269558;28;20023;-72
2022/12/28 07:37:40;;;;;;;3.05;1.20;;;19.40;54.20;;;;;;6266284;28;20017;-72
2022/12/28 07:40:41;;;;;;;2.22;1.40;;;19.40;54.10;;;;;;6246543;28;20072;-72
2022/12/28 07:43:42;;;;;;;1.98;1.40;;;19.40;54.10;;;;;;6248122;28;20380;-73
2022/12/28 07:46:43;;;;;;;2.38;1.33;;;19.40;54.10;;;;;;6247616;28;20538;-72
2022/12/28 07:49:43;;;;;;;2.70;1.50;;;19.40;54.20;;;;;;6266750;28;20056;-73
2022/12/28 07:52:44;;;;;;;2.53;1.17;;;19.40;54.10;;;;;;6267522;28;20025;-73
2022/12/28 07:55:57;;;;;;;1.95;1.38;;;19.40;54.20;;;;;;6247215;28;20032;-73
2022/12/28 07:59:00;;;;;;;2.15;1.40;;;19.40;54.10;;;;;;6259277;28;20025;-73
2022/12/28 08:02:00;;;;;;;1.85;1.27;;;19.40;54.10;;;;;;6271740;28;20123;-73
2022/12/28 08:05:01;;;;;;;4.13;1.20;;;19.40;54.10;;;;;;6251051;28;20028;-73
2022/12/28 08:08:02;;;;;;;1.90;1.30;;;19.40;54.00;;;;;;6248421;28;20027;-73
2022/12/28 08:11:05;;;;;;;2.35;1.42;;;19.40;54.00;;;;;;6261359;28;20079;-72
2022/12/28 08:14:07;;;;;;;2.40;1.30;;;19.40;54.10;;;;;;6256647;28;20447;-73
2022/12/28 08:17:07;;;;;;;2.72;1.30;;;19.40;54.00;;;;;;6271191;28;20039;-72
2022/12/28 08:20:08;;;;;;;1.08;0.82;;;19.40;54.00;;;;;;6251246;28;20069;-72
2022/12/28 08:23:09;;;;;;;1.58;1.10;;;19.40;54.00;;;;;;6246682;28;20033;-73
2022/12/28 08:26:19;;;;;;;2.28;1.38;;;19.40;54.00;;;;;;6270083;28;20025;-73
2022/12/28 08:29:20;;;;;;;1.55;1.17;;;19.40;54.10;;;;;;6257919;28;20022;-73
2022/12/28 08:32:21;;;;;;;1.80;1.25;;;19.40;54.70;;;;;;6245151;28;20022;-72
2022/12/28 08:35:22;;;;;;;1.80;1.25;;;19.40;54.00;;;;;;6264952;28;20029;-73
2022/12/28 08:38:22;;;;;;;1.45;1.15;;;19.40;54.00;;;;;;6267290;28;20025;-73
2022/12/28 08:41:25;;;;;;;2.45;1.10;;;19.40;54.00;;;;;;6244125;28;20033;-72
2022/12/28 08:44:26;;;;;;;3.40;1.30;;;19.40;54.00;;;;;;6253470;28;20030;-73
2022/12/28 08:47:26;;;;;;;1.33;1.00;;;19.40;54.00;;;;;;6244094;28;20476;-73
2022/12/28 08:50:27;;;;;;;1.55;1.10;;;19.40;54.00;;;;;;6262001;28;20103;-72
2022/12/28 08:53:28;;;;;;;2.15;1.10;;;19.40;54.00;;;;;;6267922;28;20479;-73
2022/12/28 08:56:32;;;;;;;1.63;1.05;;;19.40;54.00;;;;;;6245962;28;20032;-73
2022/12/28 08:59:33;;;;;;;1.77;1.10;;;19.40;54.00;;;;;;6253815;28;20036;-72
2022/12/28 09:02:34;;;;;;;3.10;1.42;;;19.40;53.90;;;;;;6268769;28;20495;-73
2022/12/28 09:05:39;;;;;;;1.77;1.15;;;19.40;54.00;;;;;;6253055;28;20028;-73
2022/12/28 09:08:39;;;;;;;1.40;0.98;;;19.40;54.00;;;;;;6244891;28;20041;-73
2022/12/28 09:11:41;;;;;;;1.75;1.13;;;19.40;53.90;;;;;;6234817;28;20117;-72
2022/12/28 09:14:41;;;;;;;1.50;1.00;;;19.40;54.00;;;;;;6252816;28;20028;-73
2022/12/28 09:17:42;;;;;;;1.25;1.02;;;19.40;54.00;;;;;;6268294;28;20482;-73
2022/12/28 09:20:42;;;;;;;1.60;1.08;;;19.40;54.00;;;;;;6252726;28;20124;-72
2022/12/28 09:23:44;;;;;;;2.80;1.00;;;19.40;54.00;;;;;;6244075;28;20029;-73
2022/12/28 09:26:45;;;;;;;1.20;0.80;;;19.40;54.00;;;;;;6266689;28;20032;-73
2022/12/28 09:29:46;;;;;;;2.22;1.10;;;19.40;54.00;;;;;;6263053;28;20029;-72
2022/12/28 09:33:57;;;;;;;1.30;1.00;;;19.40;54.00;;;;;;6244809;28;20369;-73
2022/12/28 09:36:07;;;;;;;1.73;1.00;;;19.40;53.90;;;;;;6261471;28;20075;-72
2022/12/28 09:39:15;;;;;;;1.48;0.90;;;19.40;53.90;;;;;;6269222;28;20029;-73
2022/12/28 09:42:24;;;;;;;1.30;0.88;;;19.40;53.90;;;;;;6220338;28;20065;-73
2022/12/28 09:45:25;;;;;;;1.80;1.20;;;19.40;53.90;;;;;;6247169;28;20139;-73
2022/12/28 09:48:26;;;;;;;2.30;1.08;;;19.40;53.90;;;;;;6268744;28;20106;-72
2022/12/28 09:51:45;;;;;;;1.45;1.13;;;19.40;53.90;;;;;;6251843;28;20591;-72
2022/12/28 09:54:46;;;;;;;1.60;0.98;;;19.40;53.90;;;;;;6246402;28;20044;-73
2022/12/28 09:57:50;;;;;;;1.77;1.20;;;19.40;53.90;;;;;;6269369;28;20025;-73
2022/12/28 10:00:54;;;;;;;1.23;0.93;;;19.40;53.90;;;;;;6254791;28;20030;-73
2022/12/28 10:03:56;;;;;;;1.38;1.08;;;19.40;53.90;;;;;;6244141;28;20033;-73
2022/12/28 10:07:00;;;;;;;1.17;0.90;;;19.40;53.90;;;;;;6264378;28;20382;-73
2022/12/28 10:10:01;;;;;;;1.40;1.02;;;19.40;53.90;;;;;;6278289;28;20041;-72
2022/12/28 10:13:17;;;;;;;1.35;0.90;;;19.40;53.90;;;;;;6240318;28;20052;-72
2022/12/28 10:16:19;;;;;;;1.13;0.90;;;19.40;53.90;;;;;;6256940;28;20028;-72
2022/12/28 10:19:23;;;;;;;1.88;1.00;;;19.40;53.90;;;;;;6267792;28;20075;-72
2022/12/28 10:22:26;;;;;;;1.20;0.90;;;19.40;53.90;;;;;;6248210;28;20112;-73
2022/12/28 10:25:26;;;;;;;1.40;0.98;;;19.40;53.90;;;;;;6248332;28;20476;-72
2022/12/28 10:28:40;;;;;;;1.00;0.70;;;19.40;53.90;;;;;;6268888;28;20025;-73
2022/12/28 10:31:42;;;;;;;1.35;1.08;;;19.40;53.90;;;;;;6254182;28;20018;-73
2022/12/28 10:35:02;;;;;;;1.00;0.88;;;19.40;53.90;;;;;;6244277;28;20112;-73
2022/12/28 10:38:06;;;;;;;1.30;1.00;;;19.40;53.90;;;;;;6267637;28;20033;-73
2022/12/28 10:41:14;;;;;;;1.50;1.03;;;19.40;53.90;;;;;;6259795;28;20439;-73
2022/12/28 10:44:24;;;;;;;2.03;0.90;;;19.40;53.90;;;;;;6264187;28;20754;-73
2022/12/28 10:47:34;;;;;;;1.08;0.80;;;19.40;53.90;;;;;;6255876;28;20031;-73
2022/12/28 10:50:44;;;;;;;1.48;1.08;;;19.40;53.90;;;;;;6249343;28;20049;-73
2022/12/28 10:53:48;;;;;;;1.05;0.70;;;19.40;53.90;;;;;;6269735;28;20534;-72
2022/12/28 10:56:49;;;;;;;2.20;0.90;;;19.40;53.90;;;;;;6261793;28;20024;-73
2022/12/28 10:59:49;;;;;;;1.08;0.82;;;19.40;54.60;;;;;;6248343;28;20535;-73
2022/12/28 11:02:50;;;;;;;1.42;0.90;;;19.40;54.00;;;;;;6266979;28;20044;-73
2022/12/28 11:06:17;;;;;;;1.70;1.00;;;19.40;54.00;;;;;;6269578;28;20480;-72
2022/12/28 11:09:25;;;;;;;1.45;0.98;;;19.40;53.90;;;;;;6247997;28;20119;-72
2022/12/28 11:12:27;;;;;;;0.88;0.75;;;19.40;53.90;;;;;;6260778;28;20063;-72
2022/12/28 11:15:30;;;;;;;1.15;0.80;;;19.40;53.90;;;;;;6271291;28;20029;-73
2022/12/28 11:18:31;;;;;;;1.17;0.85;;;19.40;53.90;;;;;;6248535;28;20060;-72
2022/12/28 11:21:33;;;;;;;0.90;0.75;;;19.40;53.90;;;;;;6252574;28;20041;-72
2022/12/28 11:24:34;;;;;;;1.30;1.00;;;19.40;53.90;;;;;;6272101;28;20032;-72
2022/12/28 11:27:35;;;;;;;1.20;0.80;;;19.40;53.90;;;;;;6258690;28;20048;-73
2022/12/28 11:30:36;;;;;;;1.52;0.90;;;19.40;53.90;;;;;;6247342;28;20029;-73
2022/12/28 11:33:41;;;;;;;1.10;0.80;;;19.30;54.70;;;;;;6267482;28;20465;-72
2022/12/28 11:36:41;;;;;;;;;;;19.30;54.00;;;;;;6266015;28;20021;-73
2022/12/28 11:39:45;;;;;;;2.03;0.88;;;19.30;53.90;;;;;;6246208;28;19924;-73
2022/12/28 11:42:54;;;;;;;1.58;1.00;;;19.40;54.00;;;;;;6256310;28;20018;-73
2022/12/28 11:45:57;;;;;;;1.38;0.80;;;19.30;54.00;;;;;;6246136;28;20120;-73
2022/12/28 11:49:21;;;;;;;1.45;0.65;;;19.40;54.00;;;;;;6268562;28;20049;-73
2022/12/28 11:52:33;;;;;;;1.23;1.00;;;19.40;54.10;;;;;;6263476;28;20099;-73
2022/12/28 11:55:58;;;;;;;1.25;1.00;;;19.40;54.00;;;;;;6245690;28;20541;-73
2022/12/28 11:59:02;;;;;;;;;;;19.30;54.00;;;;;;6266497;28;20140;-73
2022/12/28 12:02:22;;;;;;;1.30;0.80;;;19.30;53.90;;;;;;6267296;28;19931;-73
2022/12/28 12:05:38;;;;;;;0.90;0.70;;;19.40;54.00;;;;;;6246179;28;20049;-73
2022/12/28 12:08:40;;;;;;;0.90;0.80;;;19.40;54.00;;;;;;6263506;28;20040;-72
2022/12/28 12:11:41;;;;;;;0.75;0.70;;;19.40;54.70;;;;;;6255972;28;20116;-73
2022/12/28 12:14:45;;;;;;;1.23;0.80;;;19.40;54.00;;;;;;6269841;28;20382;-73
2022/12/28 12:18:04;;;;;;;1.83;1.00;;;19.40;54.00;;;;;;6258000;28;20353;-72
2022/12/28 12:21:08;;;;;;;1.27;0.90;;;19.30;54.00;;;;;;6246580;28;20030;-73
2022/12/28 12:24:31;;;;;;;0.85;0.63;;;19.30;54.00;;;;;;6263710;28;20064;-73
2022/12/28 12:27:49;;;;;;;0.82;0.68;;;19.30;54.00;;;;;;6266058;28;20145;-72
2022/12/28 12:30:50;;;;;;;1.05;0.80;;;19.30;54.10;;;;;;6246079;28;20074;-73
2022/12/28 12:33:56;;;;;;;1.38;0.90;;;19.30;54.00;;;;;;6259873;28;20032;-72
2022/12/28 12:37:36;;;;;;;0.95;0.73;;;19.30;54.10;;;;;;6269579;28;20031;-73
2022/12/28 12:41:09;;;;;;;1.25;0.77;;;19.30;54.00;;;;;;6220100;28;20053;-73
2022/12/28 12:44:51;;;;;;;1.15;0.80;;;19.30;54.00;;;;;;6230836;28;20044;-72
2022/12/28 12:48:18;;;;;;;1.00;0.90;;;19.30;54.10;;;;;;6216971;28;20025;-73
2022/12/28 12:51:31;;;;;;;1.35;0.90;;;19.30;54.10;;;;;;6269925;28;20150;-73
2022/12/28 12:54:38;;;;;;;0.93;0.70;;;19.30;54.10;;;;;;6251389;28;20033;-73
2022/12/28 12:58:07;;;;;;;0.75;0.75;;;19.30;53.90;;;;;;6247274;28;20056;-73
2022/12/28 13:01:34;;;;;;;1.67;0.82;;;19.30;54.00;;;;;;6268848;28;20067;-73
2022/12/28 13:04:35;;;;;;;2.03;0.98;;;19.30;54.00;;;;;;6252759;28;20486;-73
2022/12/28 13:07:38;;;;;;;0.88;0.70;;;19.30;54.00;;;;;;6264491;28;20074;-73
2022/12/28 13:10:43;;;;;;;1.17;0.80;;;19.30;54.00;;;;;;6225250;28;20017;-73
2022/12/28 13:13:49;;;;;;;0.80;0.60;;;19.30;53.90;;;;;;6253399;28;20020;-73
2022/12/28 13:16:56;;;;;;;0.98;0.70;;;19.30;54.00;;;;;;6268516;28;20430;-73
2022/12/28 13:20:29;;;;;;;1.17;1.00;;;19.30;54.10;;;;;;6252231;28;20033;-73
2022/12/28 13:23:32;;;;;;;0.85;0.70;;;19.30;54.00;;;;;;6217127;28;20109;-72
2022/12/28 13:26:33;;;;;;;1.08;0.60;;;19.30;54.00;;;;;;6269257;28;20033;-73
2022/12/28 13:29:38;;;;;;;1.10;0.90;;;19.30;54.00;;;;;;6255507;28;20021;-73
2022/12/28 13:32:55;;;;;;;1.00;0.70;;;19.30;54.00;;;;;;6245119;28;20108;-73
2022/12/28 13:36:08;;;;;;;1.33;0.93;;;19.30;54.00;;;;;;6268692;28;20025;-72
2022/12/28 13:39:12;;;;;;;0.93;0.70;;;19.30;54.00;;;;;;6261374;28;20060;-72
2022/12/28 13:42:32;;;;;;;1.67;0.90;;;19.30;54.00;;;;;;6243324;28;20377;-72
2022/12/28 13:45:33;;;;;;;1.20;0.80;;;19.30;54.00;;;;;;6258716;28;20039;-73
2022/12/28 13:48:40;;;;;;;0.88;0.77;;;19.30;54.00;;;;;;6267945;28;20032;-73
2022/12/28 13:51:41;;;;;;;1.20;0.70;;;19.30;54.10;;;;;;6244762;28;20042;-73
2022/12/28 13:54:45;;;;;;;1.60;0.80;;;19.30;54.00;;;;;;6255539;28;20063;-74
2022/12/28 13:57:50;;;;;;;0.90;0.77;;;19.30;54.10;;;;;;6269290;28;20021;-74
2022/12/28 14:00:54;;;;;;;1.15;0.88;;;19.30;54.10;;;;;;6248318;28;20030;-73
2022/12/28 14:04:00;;;;;;;0.82;0.75;;;19.30;54.00;;;;;;6247624;28;20111;-73
2022/12/28 14:07:00;;;;;;;1.55;0.73;;;19.30;53.90;;;;;;6267366;28;20347;-73
2022/12/28 14:10:02;;;;;;;0.73;0.70;;;19.30;54.00;;;;;;6257960;28;20075;-72
2022/12/28 14:13:04;;;;;;;0.82;0.70;;;19.30;54.00;;;;;;6244804;28;20028;-73
2022/12/28 14:16:05;;;;;;;1.00;0.75;;;19.30;54.00;;;;;;6263622;28;20491;-73
2022/12/28 14:19:07;;;;;;;1.10;0.80;;;19.30;54.00;;;;;;6270275;28;20122;-73
2022/12/28 14:22:35;;;;;;;0.93;0.75;;;19.30;54.00;;;;;;6248931;28;20036;-73
2022/12/28 14:25:41;;;;;;;0.80;0.70;;;19.30;54.00;;;;;;6246754;28;20042;-72
2022/12/28 14:28:51;;;;;;;0.88;0.60;;;19.30;54.00;;;;;;6260425;28;20483;-72
2022/12/28 14:32:01;;;;;;;1.38;0.55;;;19.30;54.00;;;;;;6248640;28;20037;-73
2022/12/28 14:35:16;;;;;;;1.45;0.90;;;19.30;53.90;;;;;;6257100;28;20021;-73
2022/12/28 14:38:23;;;;;;;1.35;0.82;;;19.30;54.10;;;;;;6273429;28;20040;-73
2022/12/28 14:41:37;;;;;;;0.90;0.68;;;19.30;54.00;;;;;;6253195;28;20059;-72
2022/12/28 14:44:39;;;;;;;0.60;0.60;;;19.30;54.00;;;;;;6263102;28;20029;-73
2022/12/28 14:47:45;;;;;;;0.90;0.70;;;19.30;54.00;;;;;;6247208;28;20029;-72
2022/12/28 14:51:05;;;;;;;0.98;0.65;;;19.30;54.00;;;;;;6246848;28;20181;-72
2022/12/28 14:54:18;;;;;;;0.82;0.60;;;19.30;54.00;;;;;;6242627;28;20043;-73
2022/12/28 14:57:42;;;;;;;1.38;0.80;;;19.30;54.00;;;;;;6268021;28;20033;-73
2022/12/28 15:01:04;;;;;;;1.38;0.75;;;19.30;54.00;;;;;;6257559;28;20053;-72
2022/12/28 15:04:05;;;;;;;1.58;0.90;;;19.30;54.00;;;;;;6263441;28;20078;-72
2022/12/28 15:07:10;;;;;;;1.27;0.70;;;19.40;54.10;;;;;;6235965;28;20488;-72
2022/12/28 15:10:11;;;;;;;1.40;0.70;;;19.30;53.90;;;;;;6238368;28;20029;-73
2022/12/28 15:13:12;;;;;;;1.25;0.60;;;19.40;54.50;;;;;;6253453;28;20028;-72
2022/12/28 15:16:13;;;;;;;1.42;0.60;;;19.40;53.90;;;;;;6258087;28;20083;-72
2022/12/28 15:19:14;;;;;;;5.10;0.90;;;19.40;53.90;;;;;;6260530;28;20049;-72
2022/12/28 15:22:15;;;;;;;9.73;0.98;;;19.40;54.30;;;;;;6247966;28;20037;-73
2022/12/28 15:25:15;;;;;;;2.53;0.82;;;19.40;54.50;;;;;;6246740;28;20025;-73
2022/12/28 15:28:16;;;;;;;4.07;0.70;;;19.40;54.20;;;;;;6250755;28;20589;-73
2022/12/28 15:31:18;;;;;;;3.42;0.70;;;19.40;54.00;;;;;;6247995;28;20040;-72
2022/12/28 15:34:19;;;;;;;1.55;0.95;;;19.40;54.00;;;;;;6274713;28;20036;-72
2022/12/28 15:37:20;;;;;;;0.80;0.70;;;19.30;54.10;;;;;;6251557;28;20469;-73
2022/12/28 15:40:20;;;;;;;4.07;0.90;;;19.40;54.00;;;;;;6266245;28;20414;-73
2022/12/28 15:43:21;;;;;;;1.95;0.70;;;19.40;53.90;;;;;;6267741;28;20070;-72
2022/12/28 15:46:22;;;;;;;4.90;0.63;;;19.40;53.90;;;;;;6254112;28;20062;-72
2022/12/28 15:49:22;;;;;;;1.08;0.63;;;19.40;53.90;;;;;;6242082;28;20163;-72
2022/12/28 15:52:23;;;;;;;1.05;0.70;;;19.40;53.90;;;;;;6259053;28;20057;-72
2022/12/28 15:55:24;;;;;;;1.08;0.80;;;19.40;54.00;;;;;;6267482;28;20108;-72
2022/12/28 15:58:24;;;;;;;0.65;0.60;;;19.40;53.90;;;;;;6268594;28;20068;-72
2022/12/28 16:01:28;;;;;;;3.67;0.65;;;19.40;54.00;;;;;;6260740;28;20079;-73
2022/12/28 16:04:28;;;;;;;1.05;0.70;;;19.40;54.00;;;;;;6255793;28;20021;-73
2022/12/28 16:07:29;;;;;;;1.42;0.52;;;19.40;54.10;;;;;;6254522;28;20104;-73
2022/12/28 16:10:30;;;;;;;1.42;0.80;;;19.30;54.00;;;;;;6260951;28;20495;-72
2022/12/28 16:13:30;;;;;;;5.13;1.25;;;19.40;54.00;;;;;;6267839;28;20028;-73
2022/12/28 16:16:34;;;;;;;0.50;0.50;;;19.30;54.00;;;;;;6263909;28;20026;-73
2022/12/28 16:19:35;;;;;;;1.55;0.82;;;19.40;54.00;;;;;;6251571;28;20086;-72
2022/12/28 16:22:35;;;;;;;2.53;1.02;;;19.40;54.10;;;;;;6251140;28;20025;-72
2022/12/28 16:25:36;;;;;;;1.90;0.63;;;19.40;54.10;;;;;;6234800;28;20030;-72
2022/12/28 16:28:37;;;;;;;2.15;0.80;;;19.40;54.00;;;;;;6264003;28;20406;-72
2022/12/28 16:31:39;;;;;;;2.15;0.80;;;19.40;53.90;;;;;;6262508;28;20029;-73